createdAt,value
2023-01-29T00:00:15.845Z,14.57
2023-01-29T00:02:44.761Z,15.85
2023-01-29T00:05:26.921Z,13.90
2023-01-29T00:07:56.682Z,16.27
2023-01-29T00:10:26.182Z,16.90
2023-01-29T00:12:54.613Z,14.75
2023-01-29T00:15:23.433Z,16.17
2023-01-29T00:17:51.479Z,15.43
2023-01-29T00:20:21.824Z,15.77
2023-01-29T00:22:49.799Z,13.77
2023-01-29T00:25:17.992Z,14.77
2023-01-29T00:27:46.135Z,15.35
2023-01-29T00:32:43.528Z,13.43
2023-01-29T00:35:12.297Z,15.40
2023-01-29T00:37:40.400Z,14.52
2023-01-29T00:40:09.562Z,17.95
2023-01-29T00:42:56.219Z,19.77
2023-01-29T00:45:24.034Z,27.05
2023-01-29T00:47:52.259Z,14.68
2023-01-29T00:50:20.096Z,16.70
2023-01-29T00:52:49.709Z,22.00
2023-01-29T00:55:18.663Z,22.95
2023-01-29T00:57:47.427Z,30.08
2023-01-29T01:00:18.650Z,16.52
2023-01-29T01:03:05.774Z,14.50
2023-01-29T01:05:35.335Z,14.87
2023-01-29T01:08:04.422Z,15.15
2023-01-29T01:10:34.544Z,13.88
2023-01-29T01:13:07.352Z,22.40
2023-01-29T01:15:37.996Z,16.08
2023-01-29T01:18:05.998Z,32.05
2023-01-29T01:20:35.921Z,24.55
2023-01-29T01:23:04.656Z,13.23
2023-01-29T01:25:32.957Z,18.70
2023-01-29T01:28:01.488Z,19.77
2023-01-29T01:30:29.360Z,17.13
2023-01-29T01:32:57.858Z,18.73
2023-01-29T01:35:25.652Z,29.85
2023-01-29T01:37:53.926Z,12.52
2023-01-29T01:40:23.675Z,12.77
2023-01-29T01:42:57.230Z,26.73
2023-01-29T01:45:31.873Z,40.85
2023-01-29T01:48:13.483Z,27.65
2023-01-29T01:50:50.982Z,22.65
2023-01-29T01:53:24.186Z,17.17
2023-01-29T01:55:59.179Z,14.48
2023-01-29T01:58:36.264Z,13.90
2023-01-29T02:01:07.222Z,18.83
2023-01-29T02:04:08.556Z,12.07
2023-01-29T02:06:58.397Z,12.00
2023-01-29T02:09:36.312Z,12.15
2023-01-29T02:12:07.435Z,10.13
2023-01-29T02:14:40.931Z,11.68
2023-01-29T02:17:14.975Z,11.77
2023-01-29T02:20:08.574Z,10.15
2023-01-29T02:22:55.132Z,12.15
2023-01-29T02:25:57.054Z,11.27
2023-01-29T02:28:27.851Z,11.57
2023-01-29T02:31:01.563Z,10.27
2023-01-29T02:34:06.083Z,10.68
2023-01-29T02:37:04.275Z,11.95
2023-01-29T02:39:57.260Z,10.95
2023-01-29T02:42:57.426Z,10.27
2023-01-29T02:45:48.060Z,9.90
2023-01-29T02:48:21.557Z,11.57
2023-01-29T02:50:59.106Z,10.77
2023-01-29T02:53:34.464Z,10.63
2023-01-29T02:56:12.094Z,12.50
2023-01-29T02:58:46.283Z,10.73
2023-01-29T03:01:51.685Z,10.90
2023-01-29T03:04:28.290Z,11.30
2023-01-29T03:07:07.602Z,10.38
2023-01-29T03:09:42.401Z,11.23
2023-01-29T03:12:34.185Z,11.30
2023-01-29T03:15:14.057Z,11.45
2023-01-29T03:17:57.409Z,10.65
2023-01-29T03:20:48.056Z,10.93
2023-01-29T03:23:38.091Z,10.57
2023-01-29T03:26:27.802Z,12.18
2023-01-29T03:29:19.862Z,10.13
2023-01-29T03:32:05.454Z,11.85
2023-01-29T03:34:45.050Z,11.20
2023-01-29T03:37:42.428Z,11.30
2023-01-29T03:40:14.814Z,11.27
2023-01-29T03:43:23.396Z,10.65
2023-01-29T03:46:08.791Z,10.10
2023-01-29T03:48:46.576Z,10.32
2023-01-29T03:51:33.407Z,10.68
2023-01-29T03:54:29.136Z,11.20
2023-01-29T03:57:05.496Z,11.75
2023-01-29T03:59:58.509Z,11.30
2023-01-29T04:02:52.483Z,11.82
2023-01-29T04:05:23.360Z,12.10
2023-01-29T04:07:56.670Z,12.07
2023-01-29T04:10:27.473Z,11.57
2023-01-29T04:13:00.268Z,10.80
2023-01-29T04:15:31.848Z,11.32
2023-01-29T04:18:00.717Z,11.88
2023-01-29T04:20:28.944Z,12.38
2023-01-29T04:22:56.634Z,12.07
2023-01-29T04:28:23.620Z,12.07
2023-01-29T04:30:58.536Z,11.07
2023-01-29T04:33:40.652Z,12.32
2023-01-29T04:36:26.212Z,11.85
2023-01-29T04:39:05.653Z,11.98
2023-01-29T04:41:49.240Z,11.88
2023-01-29T04:44:37.540Z,12.05
2023-01-29T04:47:35.141Z,10.85
2023-01-29T04:50:05.870Z,10.32
2023-01-29T04:52:56.576Z,12.75
2023-01-29T04:55:36.179Z,10.40
2023-01-29T04:58:33.301Z,12.35
2023-01-29T05:01:05.240Z,12.25
2023-01-29T05:03:34.158Z,11.48
2023-01-29T05:06:05.069Z,12.10
2023-01-29T05:08:33.867Z,12.27
2023-01-29T05:11:01.968Z,11.82
2023-01-29T05:13:32.412Z,12.52
2023-01-29T05:16:05.875Z,11.95
2023-01-29T05:18:34.601Z,11.60
2023-01-29T05:21:06.421Z,13.07
2023-01-29T05:23:33.964Z,11.05
2023-01-29T05:26:01.417Z,11.85
2023-01-29T05:28:29.569Z,11.15
2023-01-29T05:33:27.995Z,10.52
2023-01-29T05:35:56.568Z,11.52
2023-01-29T05:38:24.396Z,10.32
2023-01-29T05:40:52.036Z,11.00
2023-01-29T05:43:20.933Z,11.45
2023-01-29T05:45:57.044Z,11.70
2023-01-29T05:48:25.585Z,11.63
2023-01-29T05:50:53.522Z,10.60
2023-01-29T05:53:21.384Z,12.30
2023-01-29T05:55:49.658Z,10.82
2023-01-29T05:58:19.691Z,11.43
2023-01-29T06:00:47.168Z,11.65
2023-01-29T06:05:42.477Z,10.23
2023-01-29T06:08:10.640Z,11.00
2023-01-29T06:10:38.145Z,10.50
2023-01-29T06:13:05.569Z,10.10
2023-01-29T06:15:32.836Z,11.43
2023-01-29T06:18:00.556Z,12.45
2023-01-29T06:22:56.016Z,11.05
2023-01-29T06:25:23.416Z,11.40
2023-01-29T06:30:19.077Z,11.38
2023-01-29T06:32:47.241Z,11.32
2023-01-29T06:37:46.067Z,11.18
2023-01-29T06:40:20.696Z,11.43
2023-01-29T06:42:48.341Z,10.40
2023-01-29T06:45:15.699Z,10.40
2023-01-29T06:47:43.924Z,11.88
2023-01-29T06:50:12.276Z,14.38
2023-01-29T06:52:40.231Z,11.85
2023-01-29T06:55:08.296Z,13.38
2023-01-29T06:57:38.676Z,11.60
2023-01-29T07:00:06.642Z,13.05
2023-01-29T07:02:34.368Z,12.98
2023-01-29T07:07:29.616Z,11.85
2023-01-29T07:09:57.260Z,11.25
2023-01-29T07:12:24.719Z,11.30
2023-01-29T07:14:52.051Z,12.70
2023-01-29T07:17:20.897Z,13.82
2023-01-29T07:19:48.480Z,14.30
2023-01-29T07:22:16.840Z,13.65
2023-01-29T07:24:44.354Z,13.93
2023-01-29T07:29:39.917Z,21.05
2023-01-29T07:32:07.938Z,12.45
2023-01-29T07:34:35.928Z,13.02
2023-01-29T07:37:03.770Z,13.57
2023-01-29T07:39:31.485Z,12.55
2023-01-29T07:44:26.320Z,11.55
2023-01-29T07:46:53.870Z,14.25
2023-01-29T07:51:48.711Z,13.18
2023-01-29T07:54:16.410Z,15.30
2023-01-29T07:56:43.880Z,13.90
2023-01-29T07:59:11.770Z,16.52
2023-01-29T08:04:06.667Z,16.02
2023-01-29T08:06:35.401Z,16.75
2023-01-29T08:09:03.824Z,16.02
2023-01-29T08:11:31.038Z,16.33
2023-01-29T08:13:58.842Z,14.52
2023-01-29T08:16:28.583Z,15.13
2023-01-29T08:18:56.373Z,22.42
2023-01-29T08:21:23.904Z,19.02
2023-01-29T08:23:51.553Z,15.73
2023-01-29T08:26:19.194Z,15.57
2023-01-29T08:28:46.515Z,14.95
2023-01-29T08:31:17.284Z,16.63
2023-01-29T08:33:45.939Z,14.35
2023-01-29T08:36:13.750Z,14.13
2023-01-29T08:38:42.601Z,13.52
2023-01-29T08:41:10.196Z,14.13
2023-01-29T08:43:39.048Z,11.55
2023-01-29T08:46:07.890Z,12.20
2023-01-29T08:48:36.638Z,10.88
2023-01-29T08:51:04.614Z,13.55
2023-01-29T08:53:33.251Z,12.68
2023-01-29T08:56:01.051Z,13.75
2023-01-29T08:58:30.006Z,11.88
2023-01-29T09:01:05.926Z,10.70
2023-01-29T09:03:33.967Z,11.88
2023-01-29T09:06:02.743Z,11.07
2023-01-29T09:08:31.108Z,11.50
2023-01-29T09:11:00.657Z,11.88
2023-01-29T09:13:28.726Z,9.73
2023-01-29T09:16:00.325Z,9.57
2023-01-29T09:18:31.316Z,23.73
2023-01-29T09:20:59.347Z,12.48
2023-01-29T09:23:26.808Z,10.02
2023-01-29T09:28:22.600Z,18.48
2023-01-29T09:30:50.517Z,16.10
2023-01-29T09:33:19.927Z,13.73
2023-01-29T09:35:47.452Z,11.02
2023-01-29T09:38:16.043Z,12.15
2023-01-29T09:41:29.418Z,10.55
2023-01-29T09:44:05.201Z,10.95
2023-01-29T09:46:40.600Z,11.38
2023-01-29T09:49:28.954Z,10.88
2023-01-29T09:52:02.765Z,9.85
2023-01-29T09:55:06.049Z,10.88
2023-01-29T09:57:53.556Z,11.00
2023-01-29T10:00:30.305Z,10.95
2023-01-29T10:03:17.718Z,11.30
2023-01-29T10:06:08.976Z,9.88
2023-01-29T10:08:57.280Z,9.68
2023-01-29T10:11:43.044Z,9.37
2023-01-29T10:14:24.168Z,9.68
2023-01-29T10:17:25.217Z,11.73
2023-01-29T10:20:21.157Z,9.70
2023-01-29T10:22:53.960Z,10.40
2023-01-29T10:25:22.965Z,9.00
2023-01-29T10:27:56.983Z,9.57
2023-01-29T10:30:41.051Z,9.05
2023-01-29T10:33:17.445Z,8.35
2023-01-29T10:35:50.436Z,8.68
2023-01-29T10:38:42.558Z,8.30
2023-01-29T10:41:10.175Z,8.98
2023-01-29T10:44:05.126Z,8.70
2023-01-29T10:46:38.544Z,10.00
2023-01-29T10:49:21.880Z,9.23
2023-01-29T10:52:15.926Z,9.10
2023-01-29T10:54:49.640Z,8.93
2023-01-29T10:57:35.132Z,8.20
2023-01-29T11:00:15.198Z,9.48
2023-01-29T11:02:45.490Z,8.68
2023-01-29T11:05:55.132Z,7.88
2023-01-29T11:08:28.377Z,8.23
2023-01-29T11:11:14.416Z,9.63
2023-01-29T11:13:51.169Z,8.82
2023-01-29T11:16:19.440Z,8.27
2023-01-29T11:18:53.093Z,7.63
2023-01-29T11:21:21.566Z,8.77
2023-01-29T11:23:49.403Z,9.52
2023-01-29T11:26:24.793Z,8.38
2023-01-29T11:28:53.601Z,8.20
2023-01-29T11:31:35.654Z,8.52
2023-01-29T11:34:16.795Z,8.52
2023-01-29T11:36:45.210Z,9.10
2023-01-29T11:39:18.591Z,7.75
2023-01-29T11:41:55.394Z,7.95
2023-01-29T11:44:36.041Z,7.68
2023-01-29T11:47:27.279Z,9.50
2023-01-29T11:49:57.785Z,9.50
2023-01-29T11:52:34.262Z,8.80
2023-01-29T11:55:06.951Z,8.70
2023-01-29T11:57:38.993Z,7.70
2023-01-29T12:00:32.084Z,8.93
2023-01-29T12:03:00.033Z,7.85
2023-01-29T12:05:27.762Z,8.77
2023-01-29T12:07:57.945Z,8.27
2023-01-29T12:10:43.784Z,9.50
2023-01-29T12:13:11.249Z,12.50
2023-01-29T12:15:40.317Z,8.55
2023-01-29T12:18:31.319Z,8.27
2023-01-29T12:21:08.185Z,8.43
2023-01-29T12:23:52.210Z,8.48
2023-01-29T12:26:31.671Z,8.05
2023-01-29T12:29:33.427Z,8.10
2023-01-29T12:32:24.296Z,8.30
2023-01-29T12:35:09.364Z,7.50
2023-01-29T12:37:54.234Z,8.38
2023-01-29T12:40:25.043Z,8.45
2023-01-29T12:42:59.296Z,9.55
2023-01-29T12:45:29.216Z,8.82
2023-01-29T12:48:09.091Z,29.65
2023-01-29T12:50:40.982Z,26.60
2023-01-29T12:53:21.023Z,14.00
2023-01-29T12:56:13.248Z,10.55
2023-01-29T12:58:51.014Z,10.10
2023-01-29T13:01:39.422Z,12.07
2023-01-29T13:04:30.625Z,10.55
2023-01-29T13:07:23.726Z,9.38
2023-01-29T13:09:56.844Z,9.65
2023-01-29T13:12:28.032Z,10.25
2023-01-29T13:15:24.595Z,8.93
2023-01-29T13:18:00.302Z,8.52
2023-01-29T13:20:34.109Z,9.90
2023-01-29T13:23:23.262Z,10.35
2023-01-29T13:25:52.527Z,21.25
2023-01-29T13:28:25.624Z,35.92
2023-01-29T13:31:18.194Z,25.13
2023-01-29T13:34:01.522Z,14.38
2023-01-29T13:36:31.217Z,11.02
2023-01-29T13:39:06.345Z,11.38
2023-01-29T13:41:37.601Z,11.40
2023-01-29T13:44:18.152Z,10.57
2023-01-29T13:46:56.252Z,11.40
2023-01-29T13:49:32.553Z,11.57
2023-01-29T13:52:34.857Z,9.52
2023-01-29T13:55:14.396Z,10.38
2023-01-29T13:57:46.114Z,10.48
2023-01-29T14:00:31.007Z,12.00
2023-01-29T14:03:04.656Z,11.38
2023-01-29T14:05:39.995Z,9.88
2023-01-29T14:08:43.967Z,10.80
2023-01-29T14:11:18.200Z,10.15
2023-01-29T14:13:47.716Z,9.00
2023-01-29T14:16:19.256Z,9.10
2023-01-29T14:18:50.311Z,9.52
2023-01-29T14:21:23.845Z,10.10
2023-01-29T14:24:19.940Z,9.35
2023-01-29T14:26:49.249Z,10.05
2023-01-29T14:29:34.308Z,10.63
2023-01-29T14:32:24.963Z,10.45
2023-01-29T14:35:10.630Z,9.90
2023-01-29T14:37:41.399Z,9.00
2023-01-29T14:40:12.364Z,8.95
2023-01-29T14:43:00.283Z,10.18
2023-01-29T14:45:34.180Z,16.57
2023-01-29T14:48:11.059Z,11.40
2023-01-29T14:50:50.332Z,10.82
2023-01-29T14:53:43.195Z,10.77
2023-01-29T14:56:32.202Z,10.18
2023-01-29T15:01:52.566Z,9.73
2023-01-29T15:04:22.242Z,9.25
2023-01-29T15:07:09.866Z,9.75
2023-01-29T15:09:55.683Z,9.32
2023-01-29T15:15:27.345Z,9.95
2023-01-29T15:18:01.703Z,8.80
2023-01-29T15:20:32.655Z,8.25
2023-01-29T15:23:03.318Z,8.73
2023-01-29T15:25:47.050Z,8.82
2023-01-29T15:28:15.687Z,8.88
2023-01-29T15:30:45.207Z,8.93
2023-01-29T15:33:14.964Z,9.75
2023-01-29T15:35:43.330Z,9.02
2023-01-29T15:38:29.607Z,9.15
2023-01-29T15:41:02.500Z,9.50
2023-01-29T15:43:35.541Z,10.75
2023-01-29T15:46:24.117Z,9.38
2023-01-29T15:51:22.773Z,9.18
2023-01-29T15:53:52.467Z,12.80
2023-01-29T15:56:24.679Z,11.07
2023-01-29T15:58:52.792Z,10.18
2023-01-29T16:01:20.617Z,9.63
2023-01-29T16:03:50.655Z,10.23
2023-01-29T16:06:20.477Z,9.65
2023-01-29T16:08:53.524Z,10.15
2023-01-29T16:11:22.493Z,9.27
2023-01-29T16:13:51.576Z,11.02
2023-01-29T16:16:24.047Z,10.40
2023-01-29T16:18:59.894Z,10.35
2023-01-29T16:21:39.686Z,11.52
2023-01-29T16:24:14.122Z,10.38
2023-01-29T16:26:47.591Z,10.85
2023-01-29T16:29:18.500Z,10.32
2023-01-29T16:31:48.691Z,10.05
2023-01-29T16:34:26.635Z,11.00
2023-01-29T16:36:55.745Z,9.77
2023-01-29T16:39:41.686Z,9.40
2023-01-29T16:42:12.956Z,9.60
2023-01-29T16:44:45.533Z,10.27
2023-01-29T16:47:20.429Z,10.50
2023-01-29T16:49:56.167Z,10.85
2023-01-29T16:52:28.282Z,10.43
2023-01-29T16:55:00.654Z,9.63
2023-01-29T16:57:33.322Z,11.23
2023-01-29T17:00:06.212Z,11.13
2023-01-29T17:02:38.168Z,10.93
2023-01-29T17:05:17.473Z,11.57
2023-01-29T17:07:48.143Z,12.52
2023-01-29T17:10:20.459Z,16.52
2023-01-29T17:12:57.777Z,13.95
2023-01-29T17:15:45.092Z,14.25
2023-01-29T17:18:23.970Z,14.98
2023-01-29T17:20:55.274Z,16.23
2023-01-29T17:23:23.712Z,11.50
2023-01-29T17:25:53.543Z,10.55
2023-01-29T17:28:22.115Z,10.45
2023-01-29T17:31:05.032Z,10.63
2023-01-29T17:33:35.600Z,10.20
2023-01-29T17:36:05.881Z,11.23
2023-01-29T17:38:35.715Z,12.23
2023-01-29T17:41:06.105Z,11.13
2023-01-29T17:43:34.497Z,11.63
2023-01-29T17:46:02.408Z,11.90
2023-01-29T17:48:32.286Z,17.38
2023-01-29T17:51:04.480Z,15.45
2023-01-29T17:53:44.810Z,12.85
2023-01-29T17:56:17.775Z,14.75
2023-01-29T17:58:45.476Z,14.88
2023-01-29T18:01:12.924Z,15.07
2023-01-29T18:06:17.453Z,13.20
2023-01-29T18:08:45.193Z,12.95
2023-01-29T18:11:13.265Z,13.05
2023-01-29T18:13:42.117Z,11.70
2023-01-29T18:16:09.860Z,11.90
2023-01-29T18:18:37.810Z,11.75
2023-01-29T18:21:05.782Z,12.57
2023-01-29T18:23:33.485Z,14.32
2023-01-29T18:26:01.587Z,16.45
2023-01-29T18:30:57.356Z,12.98
2023-01-29T18:33:25.881Z,14.27
2023-01-29T18:35:56.247Z,13.32
2023-01-29T18:38:24.647Z,13.60
2023-01-29T18:40:55.490Z,14.07
2023-01-29T18:43:26.202Z,13.50
2023-01-29T18:45:58.998Z,12.10
2023-01-29T18:48:26.637Z,12.43
2023-01-29T18:50:54.676Z,13.77
2023-01-29T18:53:22.532Z,13.55
2023-01-29T18:58:36.157Z,12.85
2023-01-29T19:01:13.768Z,14.55
2023-01-29T19:03:41.809Z,15.68
2023-01-29T19:06:11.546Z,16.08
2023-01-29T19:08:40.264Z,17.40
2023-01-29T19:11:09.190Z,13.70
2023-01-29T19:13:38.669Z,14.57
2023-01-29T19:16:10.087Z,14.82
2023-01-29T19:18:38.389Z,17.42
2023-01-29T19:21:09.170Z,14.40
2023-01-29T19:23:37.391Z,14.75
2023-01-29T19:26:05.420Z,14.77
2023-01-29T19:28:33.434Z,14.52
2023-01-29T19:31:03.565Z,14.35
2023-01-29T19:33:31.700Z,15.60
2023-01-29T19:38:27.430Z,13.40
2023-01-29T19:40:55.356Z,14.13
2023-01-29T19:48:26.637Z,13.55
2023-01-29T19:50:59.857Z,14.57
2023-01-29T19:53:28.900Z,14.98
2023-01-29T19:56:01.938Z,14.52
2023-01-29T19:58:31.486Z,15.23
2023-01-29T20:01:06.780Z,14.52
2023-01-29T20:03:34.509Z,13.40
2023-01-29T20:06:04.355Z,13.82
2023-01-29T20:08:33.738Z,11.20
2023-01-29T20:11:02.237Z,10.88
2023-01-29T20:13:29.975Z,9.80
2023-01-29T20:15:57.794Z,8.73
2023-01-29T20:18:25.508Z,9.57
2023-01-29T20:23:36.690Z,8.60
2023-01-29T20:26:09.875Z,10.32
2023-01-29T20:28:40.371Z,9.82
2023-01-29T20:31:10.649Z,11.77
2023-01-29T20:33:39.615Z,11.15
2023-01-29T20:36:10.053Z,11.70
2023-01-29T20:38:38.474Z,10.60
2023-01-29T20:41:16.962Z,10.88
2023-01-29T20:43:45.708Z,9.23
2023-01-29T20:46:13.589Z,10.88
2023-01-29T20:48:42.238Z,8.80
2023-01-29T20:51:15.197Z,9.68
2023-01-29T20:53:45.810Z,10.38
2023-01-29T20:56:16.066Z,9.80
2023-01-29T20:58:47.010Z,9.25
2023-01-29T21:01:17.355Z,8.13
2023-01-29T21:03:46.524Z,9.55
2023-01-29T21:06:15.902Z,9.27
2023-01-29T21:08:43.548Z,9.73
2023-01-29T21:11:11.780Z,9.27
2023-01-29T21:13:39.666Z,9.80
2023-01-29T21:16:09.789Z,10.27
2023-01-29T21:18:40.321Z,10.75
2023-01-29T21:21:07.966Z,10.40
2023-01-29T21:23:40.332Z,9.98
2023-01-29T21:26:08.361Z,10.60
2023-01-29T21:28:36.037Z,9.57
2023-01-29T21:31:06.362Z,10.93
2023-01-29T21:33:34.960Z,10.93
2023-01-29T21:36:03.156Z,10.55
2023-01-29T21:38:30.777Z,10.85
2023-01-29T21:41:01.675Z,9.60
2023-01-29T21:43:29.500Z,11.07
2023-01-29T21:46:00.485Z,11.35
2023-01-29T21:48:28.887Z,11.85
2023-01-29T21:50:56.519Z,11.30
2023-01-29T21:53:25.211Z,11.50
2023-01-29T21:55:58.413Z,11.10
2023-01-29T21:58:25.829Z,11.80
2023-01-29T22:00:53.895Z,10.65
2023-01-29T22:03:22.051Z,11.68
2023-01-29T22:05:50.163Z,11.40
2023-01-29T22:08:18.679Z,11.70
2023-01-29T22:10:46.589Z,10.90
2023-01-29T22:13:14.405Z,10.95
2023-01-29T22:15:43.398Z,11.27
2023-01-29T22:18:11.397Z,10.90
2023-01-29T22:20:40.200Z,11.75
2023-01-29T22:23:08.485Z,10.10
2023-01-29T22:25:36.211Z,10.85
2023-01-29T22:30:32.445Z,10.75
2023-01-29T22:33:00.077Z,11.32
2023-01-29T22:35:28.111Z,10.93
2023-01-29T22:37:55.748Z,12.07
2023-01-29T22:40:24.434Z,11.15
2023-01-29T22:42:52.379Z,12.07
2023-01-29T22:45:20.149Z,11.40
2023-01-29T22:47:47.489Z,10.60
2023-01-29T22:50:15.978Z,10.75
2023-01-29T22:52:53.726Z,10.82
2023-01-29T22:55:22.427Z,12.20
2023-01-29T22:57:50.559Z,11.65
2023-01-29T23:00:21.584Z,11.13
2023-01-29T23:02:50.260Z,12.25
2023-01-29T23:05:18.610Z,12.50
2023-01-29T23:07:46.809Z,12.57
2023-01-29T23:10:15.507Z,13.52
2023-01-29T23:12:44.493Z,13.32
2023-01-29T23:15:12.227Z,14.10
2023-01-29T23:17:39.927Z,13.20
2023-01-29T23:20:08.297Z,13.82
2023-01-29T23:22:37.592Z,13.98
2023-01-29T23:25:08.067Z,13.45
2023-01-29T23:27:36.796Z,13.80
2023-01-29T23:30:12.786Z,15.07
2023-01-29T23:32:42.559Z,14.95
2023-01-29T23:35:11.513Z,13.63
2023-01-29T23:37:38.898Z,14.07
2023-01-29T23:40:07.398Z,15.75
2023-01-29T23:42:35.192Z,14.75
2023-01-29T23:47:30.113Z,13.57
2023-01-29T23:49:57.783Z,15.38
2023-01-29T23:54:54.243Z,14.23
2023-01-29T23:57:24.879Z,14.32
2023-01-29T23:59:52.632Z,15.55
